Time;durP1;ratioP1;P1;durP2;ratioP2;P2;SDS_P1;SDS_P2;PMS_P1;PMS_P2;Temp;Humidity;BMP_temperature;BMP_pressure;BME280_temperature;BME280_humidity;BME280_pressure;Samples;Min_cycle;Max_cycle;Signal;HPM_P1;HPM_P2
2022/09/26 00:01:08;;;;;;;;;;;;;;;16.34;100.00;98320.59;5051944;28;20394;-46
2022/09/26 00:03:34;;;;;;;;;;;;;;;16.22;100.00;98317.88;5049938;28;20504;-45
2022/09/26 00:06:03;;;;;;;;;;;;;;;16.27;100.00;98315.78;5053455;28;19946;-45
2022/09/26 00:08:29;;;;;;;;;;;;;;;16.02;100.00;98310.56;5052967;28;20014;-45
2022/09/26 00:10:58;;;;;;;;;;;;;;;16.22;100.00;98302.28;5051569;28;20006;-45
2022/09/26 00:13:24;;;;;;;;;;;;;;;16.40;100.00;98309.75;5050811;28;19963;-45
2022/09/26 00:15:49;;;;;;;;;;;;;;;16.49;100.00;98304.81;5050290;28;20046;-45
2022/09/26 00:18:14;;;;;;;;;;;;;;;16.54;100.00;98296.69;5052604;28;20288;-45
2022/09/26 00:20:39;;;;;;;;;;;;;;;16.57;100.00;98293.88;5050469;28;20353;-45
2022/09/26 00:23:05;;;;;;;;;;;;;;;16.57;100.00;98288.69;5052887;28;20476;-45
2022/09/26 00:25:30;;;;;;;;;;;;;;;16.42;100.00;98281.91;5050285;28;20891;-45
2022/09/26 00:27:55;;;;;;;;;;;;;;;16.56;100.00;98279.22;5052059;28;20436;-44
2022/09/26 00:30:20;;;;;;;;;;;;;;;16.50;100.00;98270.06;5051185;28;20452;-44
2022/09/26 00:32:45;;;;;;;;;;;;;;;16.29;100.00;98261.97;5050911;28;20457;-45
2022/09/26 00:35:11;;;;;;;;;;;;;;;16.42;100.00;98261.97;5050604;28;20547;-43
2022/09/26 00:37:36;;;;;;;;;;;;;;;16.52;100.00;98267.38;5051176;28;20569;-44
2022/09/26 00:40:02;;;;;;;;;;;;;;;16.54;100.00;98259.47;5051353;28;20648;-44
2022/09/26 00:42:27;;;;;;;;;;;;;;;16.34;100.00;98258.22;5052555;28;19927;-43
2022/09/26 00:44:55;;;;;;;;;;;;;;;16.45;100.00;98255.72;5030907;28;19921;-43
2022/09/26 00:47:39;;;;;;;;;;;;;;;16.34;100.00;98256.44;5051589;28;19923;-43
2022/09/26 00:50:23;;;;;;;;;;;;;;;16.49;100.00;98244.19;5050712;28;19916;-43
2022/09/26 00:52:51;;;;;;;;;;;;;;;16.56;100.00;98237.63;5032774;28;20513;-43
2022/09/26 00:55:18;;;;;;;;;;;;;;;16.52;100.00;98241.38;5050806;28;19920;-43
2022/09/26 00:57:45;;;;;;;;;;;;;;;16.38;100.00;98237.13;5031832;28;20547;-43
2022/09/26 01:00:11;;;;;;;;;;;;;;;16.41;100.00;98239.50;5050624;28;19955;-43
2022/09/26 01:02:36;;;;;;;;;;;;;;;15.99;100.00;98233.69;5048330;28;20469;-43
2022/09/26 01:05:02;;;;;;;;;;;;;;;16.05;100.00;98229.81;5031383;28;20451;-43
2022/09/26 01:07:27;;;;;;;;;;;;;;;16.03;100.00;98218.72;5032127;28;19924;-43
2022/09/26 01:09:53;;;;;;;;;;;;;;;16.09;100.00;98219.13;5049630;28;19927;-43
2022/09/26 01:12:18;;;;;;;;;;;;;;;15.89;100.00;98207.47;5048943;28;19930;-43
2022/09/26 01:14:44;;;;;;;;;;;;;;;15.38;100.00;98222.06;5030662;28;19931;-43
2022/09/26 01:17:09;;;;;;;;;;;;;;;15.22;100.00;98204.88;5050965;28;19924;-43
2022/09/26 01:19:46;;;;;;;;;;;;;;;15.63;100.00;98195.38;5031499;28;19921;-43
2022/09/26 01:22:21;;;;;;;;;;;;;;;15.37;100.00;98204.81;5050953;28;19924;-43
2022/09/26 01:24:46;;;;;;;;;;;;;;;15.22;100.00;98202.28;5049459;28;19924;-43
2022/09/26 01:27:30;;;;;;;;;;;;;;;15.51;100.00;98196.16;5050007;28;19920;-43
2022/09/26 01:30:04;;;;;;;;;;;;;;;15.24;100.00;98194.41;5049548;28;19942;-44
2022/09/26 01:32:47;;;;;;;;;;;;;;;14.97;100.00;98200.41;5050171;28;19971;-43
2022/09/26 01:35:21;;;;;;;;;;;;;;;15.50;100.00;98181.53;5049844;28;20011;-43
2022/09/26 01:37:59;;;;;;;;;;;;;;;15.78;100.00;98184.00;5050883;28;19917;-43
2022/09/26 01:40:30;;;;;;;;;;;;;;;15.43;100.00;98183.69;5049226;28;19967;-43
2022/09/26 01:43:13;;;;;;;;;;;;;;;15.68;100.00;98170.75;5031891;28;20413;-43
2022/09/26 01:45:38;;;;;;;;;;;;;;;15.99;100.00;98173.13;5014340;28;19920;-43
2022/09/26 01:48:03;;;;;;;;;;;;;;;16.14;100.00;98169.47;5025888;28;19920;-43
2022/09/26 01:50:47;;;;;;;;;;;;;;;16.37;100.00;98172.25;5048592;28;20135;-42
2022/09/26 01:53:21;;;;;;;;;;;;;;;16.07;100.00;98163.03;5050786;28;21084;-43
2022/09/26 01:56:00;;;;;;;;;;;;;;;16.11;100.00;98161.88;5030618;28;19918;-43
2022/09/26 01:58:28;;;;;;;;;;;;;;;16.21;100.00;98162.91;5031464;28;20015;-43
2022/09/26 02:00:53;;;;;;;;;;;;;;;16.07;100.00;98163.84;5049313;28;19920;-43
2022/09/26 02:03:20;;;;;;;;;;;;;;;15.85;100.00;98158.44;5030235;28;19916;-43
2022/09/26 02:05:47;;;;;;;;;;;;;;;16.12;100.00;98140.16;5030614;28;19920;-43
2022/09/26 02:08:23;;;;;;;;;;;;;;;16.12;100.00;98144.53;5029076;28;19948;-43
2022/09/26 02:10:50;;;;;;;;;;;;;;;16.12;100.00;98145.34;5030971;28;19997;-43
2022/09/26 02:13:16;;;;;;;;;;;;;;;15.98;100.00;98145.47;5049208;28;19916;-43
2022/09/26 02:15:41;;;;;;;;;;;;;;;15.95;100.00;98138.72;5030683;28;20685;-43
2022/09/26 02:18:19;;;;;;;;;;;;;;;15.75;100.00;98134.03;5032142;28;19916;-45
2022/09/26 02:20:46;;;;;;;;;;;;;;;15.86;100.00;98128.97;5049355;28;19921;-43
2022/09/26 02:23:11;;;;;;;;;;;;;;;15.91;100.00;98121.69;5031266;28;19973;-43
2022/09/26 02:25:36;;;;;;;;;;;;;;;15.66;100.00;98122.47;5049404;28;20538;-43
2022/09/26 02:28:02;;;;;;;;;;;;;;;15.81;100.00;98116.28;5049481;28;19921;-43
2022/09/26 02:30:27;;;;;;;;;;;;;;;15.66;100.00;98118.09;5049292;28;19920;-43
2022/09/26 02:32:53;;;;;;;;;;;;;;;16.15;100.00;98113.13;5028925;28;19971;-43
2022/09/26 02:38:03;;;;;;;;;;;;;;;15.83;100.00;98109.22;5049291;28;20070;-42
2022/09/26 02:40:41;;;;;;;;;;;;;;;16.20;100.00;98100.69;5052225;28;19921;-43
2022/09/26 02:43:29;;;;;;;;;;;;;;;15.99;100.00;98097.81;5053852;28;19926;-43
2022/09/26 02:46:04;;;;;;;;;;;;;;;16.09;100.00;98088.44;5041765;28;19931;-43
2022/09/26 02:49:08;;;;;;;;;;;;;;;16.02;100.00;98089.81;5011681;28;19928;-43
2022/09/26 02:51:38;;;;;;;;;;;;;;;16.04;100.00;98080.13;4960092;28;19918;-42
2022/09/26 02:54:09;;;;;;;;;;;;;;;15.83;100.00;98070.28;4944620;28;20049;-43
2022/09/26 02:56:51;;;;;;;;;;;;;;;15.85;100.00;98076.22;5009938;28;19920;-43
2022/09/26 02:59:28;;;;;;;;;;;;;;;15.36;100.00;98069.09;5034937;28;19933;-43
2022/09/26 03:01:55;;;;;;;;;;;;;;;15.81;100.00;98064.38;5051060;28;19920;-43
2022/09/26 03:04:26;;;;;;;;;;;;;;;16.14;100.00;98060.38;5034832;28;19925;-43
2022/09/26 03:06:52;;;;;;;;;;;;;;;16.25;100.00;98057.84;5053508;28;19920;-42
2022/09/26 03:09:17;;;;;;;;;;;;;;;15.93;100.00;98054.09;5052231;28;19948;-42
2022/09/26 03:11:42;;;;;;;;;;;;;;;16.05;100.00;98045.44;5051390;28;19920;-43
2022/09/26 03:14:08;;;;;;;;;;;;;;;16.02;100.00;98043.06;5052757;28;19927;-43
2022/09/26 03:16:34;;;;;;;;;;;;;;;15.75;100.00;98038.81;5053166;28;20414;-42
2022/09/26 03:19:01;;;;;;;;;;;;;;;16.00;100.00;98037.13;5034036;28;20010;-42
2022/09/26 03:21:26;;;;;;;;;;;;;;;16.20;100.00;98028.78;5052205;28;19920;-42
2022/09/26 03:23:52;;;;;;;;;;;;;;;15.67;100.00;98028.13;5034123;28;20385;-42
2022/09/26 03:26:18;;;;;;;;;;;;;;;16.17;100.00;98021.22;5033937;28;20315;-42
2022/09/26 03:28:43;;;;;;;;;;;;;;;16.06;100.00;98024.56;5052918;28;19974;-42
2022/09/26 03:31:09;;;;;;;;;;;;;;;15.76;100.00;98019.72;5053199;28;19936;-42
2022/09/26 03:33:34;;;;;;;;;;;;;;;15.56;100.00;98028.84;5051595;28;19920;-42
2022/09/26 03:36:03;;;;;;;;;;;;;;;15.66;100.00;98018.66;5034277;28;20343;-42
2022/09/26 03:38:28;;;;;;;;;;;;;;;15.61;100.00;98008.59;5051548;28;19928;-43
2022/09/26 03:40:55;;;;;;;;;;;;;;;16.01;100.00;98005.88;5052453;28;19917;-43
2022/09/26 03:43:23;;;;;;;;;;;;;;;15.40;100.00;98003.09;5052932;28;19966;-42
2022/09/26 03:45:48;;;;;;;;;;;;;;;15.43;100.00;98002.88;5052128;28;19922;-42
2022/09/26 03:48:15;;;;;;;;;;;;;;;15.47;100.00;98006.13;5052057;28;20358;-42
2022/09/26 03:50:40;;;;;;;;;;;;;;;15.55;100.00;97996.03;5048684;28;19921;-42
2022/09/26 03:53:06;;;;;;;;;;;;;;;15.73;100.00;98003.53;5051990;28;19986;-43
2022/09/26 03:55:31;;;;;;;;;;;;;;;15.33;100.00;97999.28;5052014;28;19935;-43
2022/09/26 03:57:59;;;;;;;;;;;;;;;15.22;100.00;97989.59;5052177;28;20458;-44
2022/09/26 04:00:24;;;;;;;;;;;;;;;15.75;100.00;97981.72;5051365;28;19966;-42
2022/09/26 04:02:49;;;;;;;;;;;;;;;15.52;100.00;97969.47;5050005;28;19921;-42
2022/09/26 04:05:14;;;;;;;;;;;;;;;15.67;100.00;97965.81;5049918;28;19971;-42
2022/09/26 04:07:40;;;;;;;;;;;;;;;15.38;100.00;97968.66;5051257;28;20018;-43
2022/09/26 04:10:05;;;;;;;;;;;;;;;15.38;100.00;97970.41;5050013;28;19924;-42
2022/09/26 04:12:31;;;;;;;;;;;;;;;15.63;100.00;97956.59;5024413;28;19931;-44
2022/09/26 04:14:56;;;;;;;;;;;;;;;15.23;100.00;97969.69;5051391;28;19927;-43
2022/09/26 04:17:21;;;;;;;;;;;;;;;15.40;100.00;97951.22;5033464;28;19920;-42
2022/09/26 04:19:47;;;;;;;;;;;;;;;15.11;100.00;97962.75;5025757;28;19966;-42
2022/09/26 04:22:12;;;;;;;;;;;;;;;15.13;100.00;97953.91;5051480;28;19989;-42
2022/09/26 04:24:38;;;;;;;;;;;;;;;15.31;100.00;97949.25;5050814;28;19912;-42
2022/09/26 04:27:03;;;;;;;;;;;;;;;15.14;100.00;97940.00;5050969;28;19929;-42
2022/09/26 04:29:29;;;;;;;;;;;;;;;14.87;100.00;97932.34;5051299;28;20535;-42
2022/09/26 04:31:54;;;;;;;;;;;;;;;15.26;100.00;97928.81;5052777;28;19928;-42
2022/09/26 04:34:23;;;;;;;;;;;;;;;15.34;100.00;97920.50;5050948;28;20580;-43
2022/09/26 04:36:50;;;;;;;;;;;;;;;15.79;100.00;97915.66;5051634;28;19920;-44
2022/09/26 04:39:15;;;;;;;;;;;;;;;15.64;100.00;97908.94;5049749;28;20368;-44
2022/09/26 04:41:40;;;;;;;;;;;;;;;15.63;100.00;97909.88;5050577;28;19944;-43
2022/09/26 04:44:06;;;;;;;;;;;;;;;15.42;100.00;97917.41;5052337;28;19921;-43
2022/09/26 04:46:31;;;;;;;;;;;;;;;15.52;100.00;97907.19;5051039;28;19955;-43
2022/09/26 04:48:57;;;;;;;;;;;;;;;15.49;100.00;97908.25;5051178;28;19917;-43
2022/09/26 04:51:22;;;;;;;;;;;;;;;15.22;100.00;97905.78;5051024;28;20016;-43
2022/09/26 04:53:49;;;;;;;;;;;;;;;15.97;100.00;97899.72;5051587;28;20366;-43
2022/09/26 04:56:14;;;;;;;;;;;;;;;15.51;100.00;97888.22;5039332;28;20328;-48
2022/09/26 04:58:43;;;;;;;;;;;;;;;14.81;100.00;97896.44;5049909;28;19927;-44
2022/09/26 05:01:09;;;;;;;;;;;;;;;15.17;100.00;97894.91;5049108;28;19924;-44
2022/09/26 05:03:35;;;;;;;;;;;;;;;14.64;100.00;97895.81;5047206;28;19923;-43
2022/09/26 05:06:01;;;;;;;;;;;;;;;14.76;100.00;97886.41;5049981;28;19962;-43
2022/09/26 05:08:27;;;;;;;;;;;;;;;14.97;100.00;97886.72;5030755;28;20416;-43
2022/09/26 05:10:53;;;;;;;;;;;;;;;14.66;100.00;97887.09;5051352;28;19917;-43
2022/09/26 05:13:18;;;;;;;;;;;;;;;15.16;100.00;97880.25;5049591;28;19921;-43
2022/09/26 05:15:44;;;;;;;;;;;;;;;15.23;100.00;97879.72;5048604;28;19982;-43
2022/09/26 05:18:10;;;;;;;;;;;;;;;15.66;100.00;97878.50;5049927;28;19916;-43
2022/09/26 05:20:36;;;;;;;;;;;;;;;15.60;100.00;97873.75;5050969;28;19917;-43
2022/09/26 05:23:01;;;;;;;;;;;;;;;15.90;100.00;97865.59;5050532;28;19916;-43
2022/09/26 05:28:11;;;;;;;;;;;;;;;15.54;100.00;97871.59;5051364;28;19970;-43
2022/09/26 05:30:36;;;;;;;;;;;;;;;15.63;100.00;97858.78;5049999;28;19917;-43
2022/09/26 05:33:01;;;;;;;;;;;;;;;15.29;100.00;97865.53;5051150;28;19961;-43
2022/09/26 05:35:27;;;;;;;;;;;;;;;15.21;100.00;97867.81;5031735;28;19916;-43
2022/09/26 05:37:58;;;;;;;;;;;;;;;15.46;100.00;97865.19;5051095;28;19917;-43
2022/09/26 05:43:07;;;;;;;;;;;;;;;15.26;100.00;97863.16;5051085;28;19973;-43
2022/09/26 05:45:32;;;;;;;;;;;;;;;15.51;100.00;97858.81;5050521;28;20491;-43
2022/09/26 05:47:58;;;;;;;;;;;;;;;15.63;100.00;97857.97;5050686;28;20853;-43
2022/09/26 05:50:24;;;;;;;;;;;;;;;15.48;100.00;97852.91;5051014;28;20247;-43
2022/09/26 05:52:49;;;;;;;;;;;;;;;15.13;100.00;97865.75;5051584;28;20419;-43
2022/09/26 05:55:15;;;;;;;;;;;;;;;15.67;100.00;97862.84;5049539;28;20004;-43
2022/09/26 05:57:48;;;;;;;;;;;;;;;15.53;100.00;97846.56;5050626;28;20010;-43
2022/09/26 06:00:13;;;;;;;;;;;;;;;15.45;100.00;97854.91;5050119;28;19920;-43
2022/09/26 06:02:39;;;;;;;;;;;;;;;15.64;100.00;97839.66;5048802;28;20262;-43
2022/09/26 06:05:04;;;;;;;;;;;;;;;15.81;100.00;97838.50;5049441;28;19939;-43
2022/09/26 06:07:29;;;;;;;;;;;;;;;15.43;100.00;97842.03;5050477;28;19916;-43
2022/09/26 06:09:55;;;;;;;;;;;;;;;15.83;100.00;97836.63;5050746;28;19923;-43
2022/09/26 06:12:20;;;;;;;;;;;;;;;15.76;100.00;97835.44;5049123;28;19922;-43
2022/09/26 06:14:46;;;;;;;;;;;;;;;15.72;100.00;97843.53;5051598;28;20011;-43
2022/09/26 06:17:12;;;;;;;;;;;;;;;15.92;100.00;97831.69;5054513;28;20313;-43
2022/09/26 06:19:37;;;;;;;;;;;;;;;15.68;100.00;97832.50;5054197;28;19950;-43
2022/09/26 06:22:03;;;;;;;;;;;;;;;15.88;100.00;97841.50;5027767;28;19923;-43
2022/09/26 06:24:29;;;;;;;;;;;;;;;16.20;100.00;97825.34;5054058;28;19924;-44
2022/09/26 06:26:54;;;;;;;;;;;;;;;16.22;100.00;97826.88;5054409;28;19917;-43
2022/09/26 06:29:19;;;;;;;;;;;;;;;15.48;100.00;97828.72;5054291;28;19920;-43
2022/09/26 06:31:45;;;;;;;;;;;;;;;15.97;100.00;97814.03;5053021;28;19921;-43
2022/09/26 06:34:11;;;;;;;;;;;;;;;16.27;100.00;97816.97;5053085;28;19916;-43
2022/09/26 06:36:38;;;;;;;;;;;;;;;15.67;100.00;97817.88;5053474;28;20361;-44
2022/09/26 06:39:03;;;;;;;;;;;;;;;15.77;100.00;97810.28;5053586;28;20015;-43
2022/09/26 06:41:29;;;;;;;;;;;;;;;15.81;100.00;97807.38;5053086;28;20007;-44
2022/09/26 06:43:54;;;;;;;;;;;;;;;16.31;100.00;97792.41;5054322;28;20386;-43
2022/09/26 06:46:20;;;;;;;;;;;;;;;15.93;100.00;97799.63;5053726;28;20459;-43
2022/09/26 06:48:45;;;;;;;;;;;;;;;15.78;100.00;97794.63;5054367;28;19982;-44
2022/09/26 06:51:13;;;;;;;;;;;;;;;16.32;100.00;97793.25;5052550;28;20002;-43
2022/09/26 06:53:38;;;;;;;;;;;;;;;15.78;100.00;97798.94;5052176;28;19924;-44
2022/09/26 06:56:04;;;;;;;;;;;;;;;16.43;100.00;97780.28;5052942;28;19916;-43
2022/09/26 06:58:30;;;;;;;;;;;;;;;16.30;100.00;97779.53;5053602;28;19974;-43
2022/09/26 07:00:57;;;;;;;;;;;;;;;15.68;100.00;97778.00;5026907;28;19916;-43
2022/09/26 07:03:24;;;;;;;;;;;;;;;16.85;100.00;97769.34;5050648;28;20043;-43
2022/09/26 07:05:50;;;;;;;;;;;;;;;16.51;100.00;97758.88;5052086;28;19960;-43
2022/09/26 07:08:15;;;;;;;;;;;;;;;16.86;100.00;97758.00;5053321;28;19956;-44
2022/09/26 07:10:41;;;;;;;;;;;;;;;16.70;100.00;97751.34;5053237;28;19963;-43
2022/09/26 07:13:06;;;;;;;;;;;;;;;16.75;100.00;97752.78;5052534;28;20003;-44
2022/09/26 07:15:32;;;;;;;;;;;;;;;16.73;100.00;97745.91;5051308;28;19921;-44
2022/09/26 07:18:01;;;;;;;;;;;;;;;16.24;100.00;97757.47;5026690;28;19955;-44
2022/09/26 07:20:26;;;;;;;;;;;;;;;16.72;100.00;97739.06;5035024;28;19927;-43
2022/09/26 07:22:51;;;;;;;;;;;;;;;16.87;100.00;97736.25;5053712;28;20319;-43
2022/09/26 07:25:17;;;;;;;;;;;;;;;16.50;100.00;97739.06;5050603;28;19928;-44
2022/09/26 07:27:42;;;;;;;;;;;;;;;16.77;100.00;97735.28;5054372;28;19920;-43
2022/09/26 07:30:08;;;;;;;;;;;;;;;17.26;100.00;97728.84;5051530;28;19970;-43
2022/09/26 07:32:33;;;;;;;;;;;;;;;17.44;100.00;97729.97;5032372;28;19978;-44
2022/09/26 07:35:02;;;;;;;;;;;;;;;17.08;100.00;97724.19;5052018;28;19978;-44
2022/09/26 07:37:28;;;;;;;;;;;;;;;17.21;100.00;97723.19;5052989;28;19917;-43
2022/09/26 07:39:53;;;;;;;;;;;;;;;17.66;100.00;97708.25;5051506;28;20938;-44
2022/09/26 07:42:20;;;;;;;;;;;;;;;17.39;100.00;97708.69;5053631;28;20015;-44
2022/09/26 07:44:45;;;;;;;;;;;;;;;17.55;100.00;97703.91;5052315;28;19925;-43
2022/09/26 07:52:39;;;;;;;;;;;;;;;17.69;100.00;97688.94;5052558;28;19923;-43
2022/09/26 07:55:04;;;;;;;;;;;;;;;16.89;100.00;97685.75;5052444;28;19916;-44
2022/09/26 07:57:33;;;;;;;;;;;;;;;17.10;100.00;97675.44;5052350;28;19925;-44
2022/09/26 07:59:58;;;;;;;;;;;;;;;17.18;100.00;97681.81;5052147;28;19920;-43
2022/09/26 08:02:32;;;;;;;;;;;;;;;17.05;100.00;97677.56;5050007;28;19931;-44
2022/09/26 08:04:59;;;;;;;;;;;;;;;17.48;100.00;97674.13;5040526;28;20011;-44
2022/09/26 08:07:24;;;;;;;;;;;;;;;17.78;100.00;97664.75;5052861;28;20010;-43
2022/09/26 08:09:51;;;;;;;;;;;;;;;17.60;100.00;97656.66;5050985;28;20377;-43
2022/09/26 08:12:17;;;;;;;;;;;;;;;17.92;100.00;97661.84;5025274;28;20465;-43
2022/09/26 08:14:45;;;;;;;;;;;;;;;17.85;100.00;97655.50;5051333;28;20016;-44
2022/09/26 08:17:11;;;;;;;;;;;;;;;18.10;100.00;97648.22;5051104;28;19964;-44
2022/09/26 08:19:36;;;;;;;;;;;;;;;18.22;100.00;97651.56;5052309;28;19928;-44
2022/09/26 08:22:01;;;;;;;;;;;;;;;17.91;100.00;97639.38;5051437;28;20301;-44
2022/09/26 08:24:27;;;;;;;;;;;;;;;17.99;100.00;97651.72;5051511;28;20888;-44
2022/09/26 08:26:55;;;;;;;;;;;;;;;18.58;100.00;97634.56;5052375;28;19916;-43
2022/09/26 08:29:22;;;;;;;;;;;;;;;17.40;100.00;97653.09;5050842;28;19916;-44
2022/09/26 08:31:47;;;;;;;;;;;;;;;18.49;100.00;97645.78;5051125;28;19920;-44
2022/09/26 08:34:12;;;;;;;;;;;;;;;18.62;100.00;97640.34;5050563;28;20410;-44
2022/09/26 08:36:38;;;;;;;;;;;;;;;18.23;100.00;97643.63;5050499;28;19967;-44
2022/09/26 08:39:03;;;;;;;;;;;;;;;18.38;100.00;97629.31;5052200;28;19920;-44
2022/09/26 08:41:31;;;;;;;;;;;;;;;18.26;100.00;97648.56;5049683;28;19966;-43
2022/09/26 08:44:19;;;;;;;;;;;;;;;18.12;100.00;97636.72;5052206;28;19917;-43
2022/09/26 08:47:00;;;;;;;;;;;;;;;18.34;100.00;97640.94;5049768;28;19921;-44
2022/09/26 08:49:38;;;;;;;;;;;;;;;17.00;100.00;97643.31;5051704;28;19913;-43
2022/09/26 08:52:22;;;;;;;;;;;;;;;17.64;100.00;97652.06;5052064;28;20048;-44
2022/09/26 08:54:47;;;;;;;;;;;;;;;17.85;100.00;97639.88;5050527;28;19917;-44
2022/09/26 08:57:21;;;;;;;;;;;;;;;17.78;100.00;97639.53;5050947;28;19916;-43
2022/09/26 08:59:46;;;;;;;;;;;;;;;17.21;100.00;97655.53;5050537;28;20011;-44
2022/09/26 09:02:22;;;;;;;;;;;;;;;17.00;100.00;97647.69;5028654;28;19977;-44
2022/09/26 09:04:50;;;;;;;;;;;;;;;17.28;100.00;97643.69;5032011;28;19928;-44
2022/09/26 09:07:19;;;;;;;;;;;;;;;17.82;100.00;97645.34;5032942;28;19971;-44
2022/09/26 09:09:44;;;;;;;;;;;;;;;17.36;100.00;97643.91;5032520;28;19923;-44
2022/09/26 09:12:16;;;;;;;;;;;;;;;17.64;100.00;97637.25;5031880;28;19916;-43
2022/09/26 09:14:48;;;;;;;;;;;;;;;17.20;100.00;97631.31;5032612;28;19960;-44
2022/09/26 09:17:13;;;;;;;;;;;;;;;17.53;100.00;97645.13;5050824;28;19916;-44
2022/09/26 09:19:39;;;;;;;;;;;;;;;17.22;100.00;97628.56;5051252;28;19932;-44
2022/09/26 09:22:22;;;;;;;;;;;;;;;17.11;100.00;97635.47;5050125;28;19916;-44
2022/09/26 09:24:53;;;;;;;;;;;;;;;17.29;100.00;97632.34;5050069;28;19923;-44
2022/09/26 09:27:37;;;;;;;;;;;;;;;17.58;100.00;97622.13;5051860;28;19920;-43
2022/09/26 09:30:02;;;;;;;;;;;;;;;17.87;100.00;97624.13;5050157;28;19923;-44
2022/09/26 09:32:34;;;;;;;;;;;;;;;17.05;100.00;97630.75;5050906;28;19917;-43
2022/09/26 09:34:59;;;;;;;;;;;;;;;17.04;100.00;97630.91;5032242;28;20274;-44
2022/09/26 09:37:27;;;;;;;;;;;;;;;17.06;100.00;97637.63;5033003;28;19917;-43
2022/09/26 09:39:52;;;;;;;;;;;;;;;16.90;100.00;97632.81;5032489;28;19920;-44
2022/09/26 09:42:20;;;;;;;;;;;;;;;17.87;100.00;97624.94;5050610;28;19923;-43
2022/09/26 09:44:53;;;;;;;;;;;;;;;17.17;100.00;97634.13;5049818;28;20421;-43
2022/09/26 09:47:18;;;;;;;;;;;;;;;17.08;100.00;97645.28;5050098;28;19916;-44
2022/09/26 09:49:44;;;;;;;;;;;;;;;17.41;100.00;97636.53;5030734;28;19965;-44
2022/09/26 09:52:27;;;;;;;;;;;;;;;17.09;100.00;97645.19;5032625;28;20011;-45
2022/09/26 09:54:54;;;;;;;;;;;;;;;17.08;100.00;97634.88;5049947;28;19959;-44
2022/09/26 09:57:19;;;;;;;;;;;;;;;17.16;100.00;97629.91;5049932;28;19920;-44
2022/09/26 09:59:57;;;;;;;;;;;;;;;17.00;100.00;97627.72;5049931;28;19970;-44
2022/09/26 10:02:27;;;;;;;;;;;;;;;17.48;100.00;97621.25;5049641;28;20294;-45
2022/09/26 10:04:57;;;;;;;;;;;;;;;17.33;100.00;97628.53;5031593;28;19917;-44
2022/09/26 10:07:22;;;;;;;;;;;;;;;17.40;100.00;97623.66;5032175;28;19974;-44
2022/09/26 10:09:50;;;;;;;;;;;;;;;17.95;100.00;97619.94;5050051;28;19956;-44
2022/09/26 10:12:18;;;;;;;;;;;;;;;17.84;100.00;97621.78;5049502;28;19917;-44
2022/09/26 10:14:48;;;;;;;;;;;;;;;17.83;100.00;97620.13;5032108;28;19920;-44
2022/09/26 10:17:14;;;;;;;;;;;;;;;17.35;100.00;97627.44;5049420;28;20278;-44
2022/09/26 10:19:42;;;;;;;;;;;;;;;17.49;100.00;97617.69;5049693;28;19924;-44
2022/09/26 10:22:14;;;;;;;;;;;;;;;17.66;100.00;97621.50;5050054;28;20282;-44
2022/09/26 10:24:42;;;;;;;;;;;;;;;17.50;100.00;97614.97;5049374;28;19917;-44
2022/09/26 10:27:20;;;;;;;;;;;;;;;17.47;100.00;97609.16;5033150;28;20414;-44
2022/09/26 10:29:46;;;;;;;;;;;;;;;17.51;100.00;97606.19;5050139;28;19956;-44
2022/09/26 10:32:11;;;;;;;;;;;;;;;17.03;100.00;97614.44;5029246;28;20423;-44
2022/09/26 10:34:37;;;;;;;;;;;;;;;16.93;100.00;97611.78;5031579;28;19923;-45
2022/09/26 10:37:21;;;;;;;;;;;;;;;17.47;100.00;97598.75;5050145;28;19923;-44
2022/09/26 10:42:37;;;;;;;;;;;;;;;17.04;100.00;97597.91;5049608;28;19922;-44
2022/09/26 10:45:28;;;;;;;;;;;;;;;17.12;100.00;97589.47;5049206;28;19916;-44
2022/09/26 10:47:54;;;;;;;;;;;;;;;16.42;100.00;97575.09;5048963;28;19967;-44
2022/09/26 10:50:23;;;;;;;;;;;;;;;16.43;100.00;97584.56;5049762;28;19921;-44
2022/09/26 10:52:50;;;;;;;;;;;;;;;17.12;100.00;97579.06;5031590;28;19917;-43
2022/09/26 10:55:16;;;;;;;;;;;;;;;17.17;100.00;97570.88;5022539;28;19917;-44
2022/09/26 10:57:44;;;;;;;;;;;;;;;17.72;100.00;97571.50;5049688;28;20500;-43
2022/09/26 11:00:30;;;;;;;;;;;;;;;17.46;100.00;97565.88;5032322;28;20717;-44
2022/09/26 11:02:55;;;;;;;;;;;;;;;17.29;100.00;97559.50;5043026;28;20317;-44
2022/09/26 11:08:05;;;;;;;;;;;;;;;17.68;100.00;97549.31;5039276;28;20332;-44
2022/09/26 11:10:35;;;;;;;;;;;;;;;17.31;100.00;97552.34;5051664;28;19913;-44
2022/09/26 11:13:20;;;;;;;;;;;;;;;16.84;100.00;97533.69;5051175;28;19952;-44
2022/09/26 11:15:56;;;;;;;;;;;;;;;17.65;100.00;97523.50;5050783;28;19960;-44
2022/09/26 11:18:26;;;;;;;;;;;;;;;17.20;100.00;97529.03;5052683;28;19917;-43
2022/09/26 11:20:51;;;;;;;;;;;;;;;17.26;100.00;97511.09;5035783;28;19923;-44
2022/09/26 11:23:16;;;;;;;;;;;;;;;16.49;100.00;97511.34;5034863;28;19916;-44
2022/09/26 11:25:53;;;;;;;;;;;;;;;17.26;100.00;97505.09;5052530;28;20020;-44
2022/09/26 11:28:22;;;;;;;;;;;;;;;17.08;100.00;97505.69;5052903;28;20645;-44
2022/09/26 11:30:48;;;;;;;;;;;;;;;17.29;100.00;97494.44;5035683;28;19999;-43
2022/09/26 11:33:17;;;;;;;;;;;;;;;16.72;100.00;97494.69;5053359;28;19928;-43
2022/09/26 11:36:01;;;;;;;;;;;;;;;16.64;100.00;97496.25;5052154;28;19912;-43
2022/09/26 11:38:38;;;;;;;;;;;;;;;17.02;100.00;97468.94;5053560;28;20973;-43
2022/09/26 11:41:13;;;;;;;;;;;;;;;17.10;100.00;97461.31;5035444;28;19917;-43
2022/09/26 11:43:54;;;;;;;;;;;;;;;16.72;100.00;97473.91;5052860;28;19916;-43
2022/09/26 11:46:38;;;;;;;;;;;;;;;17.39;100.00;97471.88;5034426;28;20015;-44
2022/09/26 11:49:16;;;;;;;;;;;;;;;16.36;100.00;97472.50;5052950;28;19927;-44
2022/09/26 11:51:50;;;;;;;;;;;;;;;16.93;100.00;97475.72;5053365;28;20538;-43
2022/09/26 11:54:32;;;;;;;;;;;;;;;16.95;100.00;97463.44;5034124;28;20013;-44
2022/09/26 11:56:57;;;;;;;;;;;;;;;16.62;100.00;97457.41;5052480;28;19917;-44
2022/09/26 11:59:26;;;;;;;;;;;;;;;16.84;100.00;97453.91;5051456;28;19927;-43
2022/09/26 12:01:54;;;;;;;;;;;;;;;16.85;100.00;97446.91;5033820;28;19962;-43
2022/09/26 12:04:38;;;;;;;;;;;;;;;17.01;100.00;97436.88;5051075;28;19959;-43
2022/09/26 12:07:07;;;;;;;;;;;;;;;16.76;100.00;97435.47;5052943;28;20960;-43
2022/09/26 12:09:35;;;;;;;;;;;;;;;17.07;100.00;97428.59;5035010;28;19921;-43
2022/09/26 12:12:08;;;;;;;;;;;;;;;16.35;100.00;97431.06;5049579;28;19924;-43
2022/09/26 12:14:49;;;;;;;;;;;;;;;16.96;100.00;97418.25;5035445;28;19920;-44
2022/09/26 12:17:19;;;;;;;;;;;;;;;16.87;100.00;97425.03;5051641;28;19923;-43
2022/09/26 12:19:50;;;;;;;;;;;;;;;17.54;100.00;97409.91;5051946;28;19989;-43
2022/09/26 12:22:30;;;;;;;;;;;;;;;16.93;100.00;97397.72;5051954;28;20484;-43
2022/09/26 12:24:56;;;;;;;;;;;;;;;16.35;100.00;97402.47;5035265;28;19916;-44
2022/09/26 12:27:24;;;;;;;;;;;;;;;17.46;100.00;97392.34;5052151;28;19920;-44
2022/09/26 12:30:01;;;;;;;;;;;;;;;17.23;100.00;97383.91;5034653;28;19920;-44
2022/09/26 12:32:45;;;;;;;;;;;;;;;17.34;100.00;97375.19;5052311;28;20419;-43
2022/09/26 12:35:25;;;;;;;;;;;;;;;16.53;100.00;97372.38;5051487;28;19935;-43
2022/09/26 12:38:07;;;;;;;;;;;;;;;17.19;100.00;97360.88;5051645;28;19917;-44
2022/09/26 12:40:35;;;;;;;;;;;;;;;16.84;100.00;97375.09;5049917;28;19935;-44
2022/09/26 12:43:01;;;;;;;;;;;;;;;17.25;100.00;97365.56;5051199;28;19917;-43
2022/09/26 12:45:40;;;;;;;;;;;;;;;17.35;100.00;97351.63;5051164;28;19922;-44
2022/09/26 12:48:09;;;;;;;;;;;;;;;16.95;100.00;97343.81;5051556;28;20340;-44
2022/09/26 12:50:34;;;;;;;;;;;;;;;17.65;100.00;97352.53;5051722;28;19952;-43
2022/09/26 12:53:00;;;;;;;;;;;;;;;17.87;100.00;97356.69;5025918;28;19971;-43
2022/09/26 12:55:34;;;;;;;;;;;;;;;16.85;100.00;97348.13;5051454;28;19917;-44
2022/09/26 12:57:59;;;;;;;;;;;;;;;17.12;100.00;97343.19;5052802;28;19916;-44
2022/09/26 13:00:25;;;;;;;;;;;;;;;17.48;100.00;97335.78;5050447;28;19928;-44
2022/09/26 13:02:58;;;;;;;;;;;;;;;17.49;100.00;97331.38;5033360;28;19916;-44